sensor_id;sensor_type;location;lat;lon;timestamp;pressure;altitude;pressure_sealevel;temperature;humidity
6349;BME280;3207;42.648;23.406;2023-09-12T00:00:25;99752.69;;;24.02;68.02
6349;BME280;3207;42.648;23.406;2023-09-12T00:02:52;99753.91;;;24.06;68.21
6349;BME280;3207;42.648;23.406;2023-09-12T00:05:19;99747.75;;;24.06;68.15
6349;BME280;3207;42.648;23.406;2023-09-12T00:07:46;99745.09;;;24.13;68.14
6349;BME280;3207;42.648;23.406;2023-09-12T00:10:12;99739.13;;;24.17;67.67
6349;BME280;3207;42.648;23.406;2023-09-12T00:12:39;99745.09;;;24.19;67.85
6349;BME280;3207;42.648;23.406;2023-09-12T00:15:09;99753.09;;;24.13;68.14
6349;BME280;3207;42.648;23.406;2023-09-12T00:17:35;99746.31;;;24.10;68.44
6349;BME280;3207;42.648;23.406;2023-09-12T00:20:03;99739.72;;;24.06;68.52
6349;BME280;3207;42.648;23.406;2023-09-12T00:22:31;99738.69;;;23.87;69.14
6349;BME280;3207;42.648;23.406;2023-09-12T00:24:58;99739.91;;;23.85;69.43
6349;BME280;3207;42.648;23.406;2023-09-12T00:27:25;99743.22;;;23.80;69.59
6349;BME280;3207;42.648;23.406;2023-09-12T00:29:52;99740.56;;;23.80;69.70
6349;BME280;3207;42.648;23.406;2023-09-12T00:32:21;99747.31;;;23.76;69.89
6349;BME280;3207;42.648;23.406;2023-09-12T00:34:47;99745.47;;;23.70;70.37
6349;BME280;3207;42.648;23.406;2023-09-12T00:37:14;99739.28;;;23.63;70.49
6349;BME280;3207;42.648;23.406;2023-09-12T00:39:41;99739.06;;;23.64;70.97
6349;BME280;3207;42.648;23.406;2023-09-12T00:42:08;99747.28;;;23.63;71.14
6349;BME280;3207;42.648;23.406;2023-09-12T00:44:35;99739.09;;;23.71;71.02
6349;BME280;3207;42.648;23.406;2023-09-12T00:47:02;99745.66;;;23.75;70.51
6349;BME280;3207;42.648;23.406;2023-09-12T00:49:31;99741.97;;;23.69;70.86
6349;BME280;3207;42.648;23.406;2023-09-12T00:51:59;99736.22;;;23.66;71.13
6349;BME280;3207;42.648;23.406;2023-09-12T00:54:27;99747.50;;;23.68;70.93
6349;BME280;3207;42.648;23.406;2023-09-12T00:56:54;99747.69;;;23.60;71.15
6349;BME280;3207;42.648;23.406;2023-09-12T00:59:21;99746.84;;;23.53;72.58
6349;BME280;3207;42.648;23.406;2023-09-12T01:01:48;99755.84;;;23.45;74.00
6349;BME280;3207;42.648;23.406;2023-09-12T01:04:16;99742.25;;;23.27;74.85
6349;BME280;3207;42.648;23.406;2023-09-12T01:06:45;99744.66;;;23.15;75.66
6349;BME280;3207;42.648;23.406;2023-09-12T01:09:13;99747.88;;;23.04;76.38
6349;BME280;3207;42.648;23.406;2023-09-12T01:11:41;99744.38;;;22.97;77.12
6349;BME280;3207;42.648;23.406;2023-09-12T01:14:08;99749.66;;;22.90;77.76
6349;BME280;3207;42.648;23.406;2023-09-12T01:16:35;99738.94;;;22.77;78.36
6349;BME280;3207;42.648;23.406;2023-09-12T01:19:02;99752.16;;;22.64;78.98
6349;BME280;3207;42.648;23.406;2023-09-12T01:22:00;99759.91;;;22.59;79.51
6349;BME280;3207;42.648;23.406;2023-09-12T01:27:28;99762.69;;;22.44;80.22
6349;BME280;3207;42.648;23.406;2023-09-12T01:29:57;99736.78;;;22.32;80.05
6349;BME280;3207;42.648;23.406;2023-09-12T01:32:26;99761.91;;;22.50;79.38
6349;BME280;3207;42.648;23.406;2023-09-12T01:34:53;99761.91;;;22.50;78.81
6349;BME280;3207;42.648;23.406;2023-09-12T01:37:20;99767.56;;;22.41;79.74
6349;BME280;3207;42.648;23.406;2023-09-12T01:39:47;99764.38;;;22.52;79.21
6349;BME280;3207;42.648;23.406;2023-09-12T01:42:16;99760.25;;;22.49;79.22
6349;BME280;3207;42.648;23.406;2023-09-12T01:44:46;99766.41;;;22.50;79.31
6349;BME280;3207;42.648;23.406;2023-09-12T01:47:16;99769.72;;;22.58;78.89
6349;BME280;3207;42.648;23.406;2023-09-12T01:49:47;99775.13;;;22.65;78.63
6349;BME280;3207;42.648;23.406;2023-09-12T01:52:14;99766.25;;;22.58;78.47
6349;BME280;3207;42.648;23.406;2023-09-12T01:54:42;99778.03;;;22.42;79.63
6349;BME280;3207;42.648;23.406;2023-09-12T01:57:11;99773.69;;;22.35;80.10
6349;BME280;3207;42.648;23.406;2023-09-12T01:59:38;99780.22;;;22.32;80.61
6349;BME280;3207;42.648;23.406;2023-09-12T02:02:06;99779.19;;;22.33;80.85
6349;BME280;3207;42.648;23.406;2023-09-12T02:04:33;99779.63;;;22.37;80.93
6349;BME280;3207;42.648;23.406;2023-09-12T02:07:00;99770.19;;;22.34;80.83
6349;BME280;3207;42.648;23.406;2023-09-12T02:09:26;99766.75;;;22.40;80.97
6349;BME280;3207;42.648;23.406;2023-09-12T02:11:53;99779.88;;;22.42;80.96
6349;BME280;3207;42.648;23.406;2023-09-12T02:14:20;99779.53;;;22.51;80.31
6349;BME280;3207;42.648;23.406;2023-09-12T02:16:47;99779.53;;;22.51;80.32
6349;BME280;3207;42.648;23.406;2023-09-12T02:19:15;99774.88;;;22.60;80.07
6349;BME280;3207;42.648;23.406;2023-09-12T02:21:42;99779.28;;;22.74;79.50
6349;BME280;3207;42.648;23.406;2023-09-12T02:24:09;99780.16;;;22.81;79.08
6349;BME280;3207;42.648;23.406;2023-09-12T02:26:36;99771.97;;;22.83;77.95
6349;BME280;3207;42.648;23.406;2023-09-12T02:29:03;99773.44;;;22.85;76.71
6349;BME280;3207;42.648;23.406;2023-09-12T02:31:31;99768.09;;;22.85;76.22
6349;BME280;3207;42.648;23.406;2023-09-12T02:33:58;99762.94;;;22.77;76.69
6349;BME280;3207;42.648;23.406;2023-09-12T02:36:26;99770.31;;;22.75;76.50
6349;BME280;3207;42.648;23.406;2023-09-12T02:38:54;99773.13;;;22.74;76.57
6349;BME280;3207;42.648;23.406;2023-09-12T02:41:21;99768.81;;;22.73;76.56
6349;BME280;3207;42.648;23.406;2023-09-12T02:43:48;99756.38;;;22.80;76.25
6349;BME280;3207;42.648;23.406;2023-09-12T02:46:15;99766.44;;;22.78;76.16
6349;BME280;3207;42.648;23.406;2023-09-12T02:48:42;99763.47;;;22.73;76.32
6349;BME280;3207;42.648;23.406;2023-09-12T02:51:08;99764.38;;;22.80;76.16
6349;BME280;3207;42.648;23.406;2023-09-12T02:53:37;99764.56;;;22.78;76.11
6349;BME280;3207;42.648;23.406;2023-09-12T02:56:03;99763.63;;;22.64;76.50
6349;BME280;3207;42.648;23.406;2023-09-12T02:58:30;99761.50;;;22.53;77.07
6349;BME280;3207;42.648;23.406;2023-09-12T03:00:57;99733.50;;;22.36;77.08
6349;BME280;3207;42.648;23.406;2023-09-12T03:03:25;99765.97;;;22.46;77.52
6349;BME280;3207;42.648;23.406;2023-09-12T03:05:57;99757.34;;;22.44;77.71
6349;BME280;3207;42.648;23.406;2023-09-12T03:08:25;99756.94;;;22.47;77.80
6349;BME280;3207;42.648;23.406;2023-09-12T03:10:55;99760.63;;;22.46;77.87
6349;BME280;3207;42.648;23.406;2023-09-12T03:13:23;99759.25;;;22.57;77.75
6349;BME280;3207;42.648;23.406;2023-09-12T03:15:51;99757.44;;;22.57;77.37
6349;BME280;3207;42.648;23.406;2023-09-12T03:18:18;99755.81;;;22.56;77.87
6349;BME280;3207;42.648;23.406;2023-09-12T03:20:45;99755.19;;;22.61;77.45
6349;BME280;3207;42.648;23.406;2023-09-12T03:23:11;99756.03;;;22.61;77.52
6349;BME280;3207;42.648;23.406;2023-09-12T03:25:39;99755.41;;;22.59;77.46
6349;BME280;3207;42.648;23.406;2023-09-12T03:28:07;99757.41;;;22.51;78.20
6349;BME280;3207;42.648;23.406;2023-09-12T03:30:35;99758.22;;;22.51;78.29
6349;BME280;3207;42.648;23.406;2023-09-12T03:33:03;99756.34;;;22.45;78.35
6349;BME280;3207;42.648;23.406;2023-09-12T03:35:32;99755.31;;;22.46;78.43
6349;BME280;3207;42.648;23.406;2023-09-12T03:37:59;99759.38;;;22.42;78.58
6349;BME280;3207;42.648;23.406;2023-09-12T03:40:28;99763.25;;;22.40;78.75
6349;BME280;3207;42.648;23.406;2023-09-12T03:42:56;99758.13;;;22.38;78.76
6349;BME280;3207;42.648;23.406;2023-09-12T03:45:24;99761.97;;;22.36;78.99
6349;BME280;3207;42.648;23.406;2023-09-12T03:47:51;99766.09;;;22.38;78.53
6349;BME280;3207;42.648;23.406;2023-09-12T03:50:18;99751.47;;;22.27;78.68
6349;BME280;3207;42.648;23.406;2023-09-12T03:52:45;99755.97;;;22.27;78.36
6349;BME280;3207;42.648;23.406;2023-09-12T03:55:12;99757.41;;;22.23;78.55
6349;BME280;3207;42.648;23.406;2023-09-12T03:57:39;99760.00;;;22.16;78.72
6349;BME280;3207;42.648;23.406;2023-09-12T04:00:07;99763.34;;;22.04;79.34
6349;BME280;3207;42.648;23.406;2023-09-12T04:02:35;99759.06;;;22.03;79.53
6349;BME280;3207;42.648;23.406;2023-09-12T04:05:02;99757.47;;;22.08;79.37
6349;BME280;3207;42.648;23.406;2023-09-12T04:07:29;99763.75;;;22.01;79.55
6349;BME280;3207;42.648;23.406;2023-09-12T04:09:56;99765.50;;;21.93;79.83
6349;BME280;3207;42.648;23.406;2023-09-12T04:12:23;99765.41;;;22.02;79.42
6349;BME280;3207;42.648;23.406;2023-09-12T04:14:50;99753.75;;;22.03;79.06
6349;BME280;3207;42.648;23.406;2023-09-12T04:17:17;99764.09;;;21.98;79.38
6349;BME280;3207;42.648;23.406;2023-09-12T04:19:45;99764.63;;;22.08;79.08
6349;BME280;3207;42.648;23.406;2023-09-12T04:22:13;99764.41;;;22.03;79.39
6349;BME280;3207;42.648;23.406;2023-09-12T04:24:40;99769.50;;;22.04;79.09
6349;BME280;3207;42.648;23.406;2023-09-12T04:27:07;99768.91;;;22.02;79.16
6349;BME280;3207;42.648;23.406;2023-09-12T04:29:34;99772.16;;;22.04;78.89
6349;BME280;3207;42.648;23.406;2023-09-12T04:32:02;99769.38;;;21.91;79.93
6349;BME280;3207;42.648;23.406;2023-09-12T04:34:29;99771.22;;;21.90;79.94
6349;BME280;3207;42.648;23.406;2023-09-12T04:36:57;99783.13;;;21.95;79.96
6349;BME280;3207;42.648;23.406;2023-09-12T04:39:24;99788.06;;;21.98;80.22
6349;BME280;3207;42.648;23.406;2023-09-12T04:41:51;99783.94;;;21.95;80.52
6349;BME280;3207;42.648;23.406;2023-09-12T04:44:18;99789.38;;;22.02;80.84
6349;BME280;3207;42.648;23.406;2023-09-12T04:46:52;99794.78;;;21.93;81.07
6349;BME280;3207;42.648;23.406;2023-09-12T04:49:19;99795.41;;;21.96;81.39
6349;BME280;3207;42.648;23.406;2023-09-12T04:51:46;99798.84;;;21.89;81.12
6349;BME280;3207;42.648;23.406;2023-09-12T04:54:14;99799.03;;;21.88;80.79
6349;BME280;3207;42.648;23.406;2023-09-12T04:56:41;99804.72;;;21.85;80.77
6349;BME280;3207;42.648;23.406;2023-09-12T04:59:08;99805.13;;;21.82;81.14
6349;BME280;3207;42.648;23.406;2023-09-12T05:01:35;99813.72;;;21.84;80.99
6349;BME280;3207;42.648;23.406;2023-09-12T05:04:02;99815.19;;;21.86;80.84
6349;BME280;3207;42.648;23.406;2023-09-12T05:06:29;99814.53;;;21.84;80.96
6349;BME280;3207;42.648;23.406;2023-09-12T05:08:56;99815.69;;;21.75;81.49
6349;BME280;3207;42.648;23.406;2023-09-12T05:11:24;99815.69;;;21.75;81.75
6349;BME280;3207;42.648;23.406;2023-09-12T05:13:52;99807.06;;;21.73;81.78
6349;BME280;3207;42.648;23.406;2023-09-12T05:16:18;99811.53;;;21.73;81.71
6349;BME280;3207;42.648;23.406;2023-09-12T05:18:45;99815.63;;;21.69;81.73
6349;BME280;3207;42.648;23.406;2023-09-12T05:21:14;99820.47;;;21.65;81.83
6349;BME280;3207;42.648;23.406;2023-09-12T05:23:41;99826.16;;;21.62;81.39
6349;BME280;3207;42.648;23.406;2023-09-12T05:26:08;99825.44;;;21.68;80.83
6349;BME280;3207;42.648;23.406;2023-09-12T05:28:36;99824.88;;;21.94;79.96
6349;BME280;3207;42.648;23.406;2023-09-12T05:31:03;99827.47;;;22.02;79.08
6349;BME280;3207;42.648;23.406;2023-09-12T05:33:30;99827.25;;;22.25;78.54
6349;BME280;3207;42.648;23.406;2023-09-12T05:35:57;99833.59;;;22.45;77.38
6349;BME280;3207;42.648;23.406;2023-09-12T05:38:24;99825.31;;;22.61;76.71
6349;BME280;3207;42.648;23.406;2023-09-12T05:40:51;99820.00;;;22.89;75.21
6349;BME280;3207;42.648;23.406;2023-09-12T05:43:18;99820.91;;;23.03;74.75
6349;BME280;3207;42.648;23.406;2023-09-12T05:45:46;99827.63;;;23.33;73.85
6349;BME280;3207;42.648;23.406;2023-09-12T05:48:14;99829.41;;;23.61;72.81
6349;BME280;3207;42.648;23.406;2023-09-12T05:50:40;99819.28;;;24.37;70.49
6349;BME280;3207;42.648;23.406;2023-09-12T05:53:08;99826.81;;;25.77;64.50
6349;BME280;3207;42.648;23.406;2023-09-12T05:55:35;99831.91;;;27.34;58.96
6349;BME280;3207;42.648;23.406;2023-09-12T05:58:02;99834.81;;;28.64;54.32
6349;BME280;3207;42.648;23.406;2023-09-12T06:00:31;99836.72;;;29.90;50.04
6349;BME280;3207;42.648;23.406;2023-09-12T06:02:59;99849.00;;;30.93;47.63
6349;BME280;3207;42.648;23.406;2023-09-12T06:05:26;99843.13;;;31.83;44.89
6349;BME280;3207;42.648;23.406;2023-09-12T06:07:53;99851.16;;;32.59;42.57
6349;BME280;3207;42.648;23.406;2023-09-12T06:10:27;99841.38;;;33.37;40.60
6349;BME280;3207;42.648;23.406;2023-09-12T06:12:54;99841.84;;;34.16;38.61
6349;BME280;3207;42.648;23.406;2023-09-12T06:15:21;99839.94;;;34.73;37.61
6349;BME280;3207;42.648;23.406;2023-09-12T06:17:48;99846.06;;;35.34;35.96
6349;BME280;3207;42.648;23.406;2023-09-12T06:20:16;99850.16;;;35.86;35.03
6349;BME280;3207;42.648;23.406;2023-09-12T06:22:43;99853.59;;;36.41;34.12
6349;BME280;3207;42.648;23.406;2023-09-12T06:25:10;99859.22;;;36.83;33.01
6349;BME280;3207;42.648;23.406;2023-09-12T06:27:36;99852.03;;;37.40;32.03
6349;BME280;3207;42.648;23.406;2023-09-12T06:30:04;99852.41;;;37.95;31.35
6349;BME280;3207;42.648;23.406;2023-09-12T06:32:31;99856.84;;;38.61;30.24
6349;BME280;3207;42.648;23.406;2023-09-12T06:34:58;99863.00;;;39.12;29.35
6349;BME280;3207;42.648;23.406;2023-09-12T06:37:26;99857.72;;;39.43;28.68
6349;BME280;3207;42.648;23.406;2023-09-12T06:39:53;99873.28;;;39.84;27.74
6349;BME280;3207;42.648;23.406;2023-09-12T06:42:20;99869.09;;;40.00;27.94
6349;BME280;3207;42.648;23.406;2023-09-12T06:44:47;99865.94;;;40.29;27.18
6349;BME280;3207;42.648;23.406;2023-09-12T06:47:14;99865.28;;;40.77;27.07
6349;BME280;3207;42.648;23.406;2023-09-12T06:49:40;99868.03;;;40.77;27.32
6349;BME280;3207;42.648;23.406;2023-09-12T06:52:07;99875.19;;;40.86;26.69
6349;BME280;3207;42.648;23.406;2023-09-12T06:54:37;99876.16;;;40.90;26.63
6349;BME280;3207;42.648;23.406;2023-09-12T06:57:04;99874.50;;;41.12;27.08
6349;BME280;3207;42.648;23.406;2023-09-12T06:59:31;99875.19;;;41.26;26.11
6349;BME280;3207;42.648;23.406;2023-09-12T07:01:58;99878.06;;;41.69;25.65
6349;BME280;3207;42.648;23.406;2023-09-12T07:04:25;99883.25;;;41.96;25.45
6349;BME280;3207;42.648;23.406;2023-09-12T07:06:52;99877.44;;;42.24;24.91
6349;BME280;3207;42.648;23.406;2023-09-12T07:09:19;99881.81;;;42.16;25.20
6349;BME280;3207;42.648;23.406;2023-09-12T07:11:47;99886.03;;;42.95;24.29
6349;BME280;3207;42.648;23.406;2023-09-12T07:14:14;99884.88;;;43.42;23.88
6349;BME280;3207;42.648;23.406;2023-09-12T07:16:41;99885.03;;;43.37;23.84
6349;BME280;3207;42.648;23.406;2023-09-12T07:19:08;99880.66;;;43.66;23.21
6349;BME280;3207;42.648;23.406;2023-09-12T07:21:35;99880.94;;;43.73;23.28
6349;BME280;3207;42.648;23.406;2023-09-12T07:24:02;99891.09;;;44.23;22.68
6349;BME280;3207;42.648;23.406;2023-09-12T07:26:29;99895.97;;;44.59;22.32
6349;BME280;3207;42.648;23.406;2023-09-12T07:28:57;99896.13;;;44.74;22.33
6349;BME280;3207;42.648;23.406;2023-09-12T07:31:28;99902.13;;;44.89;22.15
6349;BME280;3207;42.648;23.406;2023-09-12T07:33:54;99905.22;;;44.75;22.22
6349;BME280;3207;42.648;23.406;2023-09-12T07:36:21;99909.97;;;44.33;22.69
6349;BME280;3207;42.648;23.406;2023-09-12T07:38:48;99903.78;;;45.26;21.69
6349;BME280;3207;42.648;23.406;2023-09-12T07:41:15;99909.75;;;45.40;21.81
6349;BME280;3207;42.648;23.406;2023-09-12T07:43:42;99914.56;;;45.68;21.44
6349;BME280;3207;42.648;23.406;2023-09-12T07:46:10;99911.50;;;45.20;21.94
6349;BME280;3207;42.648;23.406;2023-09-12T07:48:37;99913.88;;;45.46;21.34
6349;BME280;3207;42.648;23.406;2023-09-12T07:51:11;99910.16;;;45.79;21.43
6349;BME280;3207;42.648;23.406;2023-09-12T07:53:38;99912.06;;;46.43;20.46
6349;BME280;3207;42.648;23.406;2023-09-12T07:56:05;99919.81;;;46.65;20.51
6349;BME280;3207;42.648;23.406;2023-09-12T07:58:32;99911.16;;;46.67;20.23
6349;BME280;3207;42.648;23.406;2023-09-12T08:00:58;99917.34;;;47.23;19.87
6349;BME280;3207;42.648;23.406;2023-09-12T08:03:27;99916.50;;;47.54;19.66
6349;BME280;3207;42.648;23.406;2023-09-12T08:05:56;99908.34;;;47.77;19.15
6349;BME280;3207;42.648;23.406;2023-09-12T08:08:23;99909.63;;;47.83;19.42
6349;BME280;3207;42.648;23.406;2023-09-12T08:10:50;99915.28;;;48.05;19.23
6349;BME280;3207;42.648;23.406;2023-09-12T08:13:17;99912.78;;;48.39;18.79
6349;BME280;3207;42.648;23.406;2023-09-12T08:15:44;99907.16;;;48.35;18.41
6349;BME280;3207;42.648;23.406;2023-09-12T08:18:10;99913.50;;;48.78;18.30
6349;BME280;3207;42.648;23.406;2023-09-12T08:20:39;99924.28;;;49.52;17.90
6349;BME280;3207;42.648;23.406;2023-09-12T08:23:06;99917.25;;;48.24;18.61
6349;BME280;3207;42.648;23.406;2023-09-12T08:25:33;99913.22;;;46.85;19.77
6349;BME280;3207;42.648;23.406;2023-09-12T08:27:59;99906.72;;;46.22;20.33
6349;BME280;3207;42.648;23.406;2023-09-12T08:30:26;99914.25;;;45.57;20.76
6349;BME280;3207;42.648;23.406;2023-09-12T08:32:54;99918.00;;;44.79;21.67
6349;BME280;3207;42.648;23.406;2023-09-12T08:35:21;99914.19;;;44.51;22.26
6349;BME280;3207;42.648;23.406;2023-09-12T08:37:49;99919.63;;;44.27;22.58
6349;BME280;3207;42.648;23.406;2023-09-12T08:40:16;99913.81;;;44.20;22.89
6349;BME280;3207;42.648;23.406;2023-09-12T08:42:44;99914.22;;;44.09;22.97
6349;BME280;3207;42.648;23.406;2023-09-12T08:45:13;99915.31;;;44.38;22.63
6349;BME280;3207;42.648;23.406;2023-09-12T08:47:41;99919.59;;;44.47;22.65
6349;BME280;3207;42.648;23.406;2023-09-12T08:50:10;99915.16;;;44.67;22.87
6349;BME280;3207;42.648;23.406;2023-09-12T08:52:39;99919.94;;;44.79;22.64
6349;BME280;3207;42.648;23.406;2023-09-12T08:55:07;99912.69;;;44.74;22.67
6349;BME280;3207;42.648;23.406;2023-09-12T08:57:38;99911.56;;;44.88;22.27
6349;BME280;3207;42.648;23.406;2023-09-12T09:00:06;99910.72;;;44.75;22.21
6349;BME280;3207;42.648;23.406;2023-09-12T09:02:34;99900.88;;;45.10;22.00
6349;BME280;3207;42.648;23.406;2023-09-12T09:05:02;99910.53;;;45.04;21.74
6349;BME280;3207;42.648;23.406;2023-09-12T09:07:32;99908.94;;;45.15;21.91
6349;BME280;3207;42.648;23.406;2023-09-12T09:10:02;99909.97;;;44.99;21.27
6349;BME280;3207;42.648;23.406;2023-09-12T09:12:32;99908.22;;;45.06;21.49
6349;BME280;3207;42.648;23.406;2023-09-12T09:14:58;99904.44;;;45.47;20.74
6349;BME280;3207;42.648;23.406;2023-09-12T09:17:26;99899.56;;;45.81;19.84
6349;BME280;3207;42.648;23.406;2023-09-12T09:19:53;99906.03;;;45.85;19.17
6349;BME280;3207;42.648;23.406;2023-09-12T09:22:20;99903.06;;;46.46;17.84
6349;BME280;3207;42.648;23.406;2023-09-12T09:24:48;99898.91;;;46.83;17.90
6349;BME280;3207;42.648;23.406;2023-09-12T09:30:11;99906.66;;;46.62;18.63
6349;BME280;3207;42.648;23.406;2023-09-12T09:32:38;99895.25;;;46.95;18.46
6349;BME280;3207;42.648;23.406;2023-09-12T09:35:06;99910.28;;;47.41;18.33
6349;BME280;3207;42.648;23.406;2023-09-12T09:37:33;99909.50;;;47.09;18.52
6349;BME280;3207;42.648;23.406;2023-09-12T09:40:00;99910.44;;;46.70;18.81
6349;BME280;3207;42.648;23.406;2023-09-12T09:42:30;99900.34;;;46.34;19.63
6349;BME280;3207;42.648;23.406;2023-09-12T09:44:57;99907.09;;;46.48;19.79
6349;BME280;3207;42.648;23.406;2023-09-12T09:47:25;99907.34;;;46.43;19.65
6349;BME280;3207;42.648;23.406;2023-09-12T09:49:52;99889.28;;;46.34;20.06
6349;BME280;3207;42.648;23.406;2023-09-12T09:52:25;99902.13;;;46.26;20.18
6349;BME280;3207;42.648;23.406;2023-09-12T09:54:52;99905.00;;;46.30;19.94
6349;BME280;3207;42.648;23.406;2023-09-12T09:57:19;99905.25;;;46.68;19.12
6349;BME280;3207;42.648;23.406;2023-09-12T09:59:49;99894.91;;;46.81;19.36
6349;BME280;3207;42.648;23.406;2023-09-12T10:02:18;99902.47;;;46.84;18.74
6349;BME280;3207;42.648;23.406;2023-09-12T10:04:50;99895.34;;;46.98;18.97
6349;BME280;3207;42.648;23.406;2023-09-12T10:07:21;99889.78;;;47.30;18.56
6349;BME280;3207;42.648;23.406;2023-09-12T10:09:48;99890.09;;;47.09;19.03
6349;BME280;3207;42.648;23.406;2023-09-12T10:12:16;99892.00;;;47.56;18.81
6349;BME280;3207;42.648;23.406;2023-09-12T10:14:43;99887.84;;;47.46;18.18
6349;BME280;3207;42.648;23.406;2023-09-12T10:17:12;99877.63;;;46.56;18.80
6349;BME280;3207;42.648;23.406;2023-09-12T10:19:44;99878.38;;;45.97;19.15
6349;BME280;3207;42.648;23.406;2023-09-12T10:22:21;99854.16;;;46.22;19.64
6349;BME280;3207;42.648;23.406;2023-09-12T10:24:51;99881.91;;;46.38;19.38
6349;BME280;3207;42.648;23.406;2023-09-12T10:27:19;99878.28;;;46.65;18.67
6349;BME280;3207;42.648;23.406;2023-09-12T10:29:46;99871.41;;;46.75;18.64
6349;BME280;3207;42.648;23.406;2023-09-12T10:32:16;99877.84;;;46.63;19.06
6349;BME280;3207;42.648;23.406;2023-09-12T10:34:44;99871.84;;;46.61;18.83
6349;BME280;3207;42.648;23.406;2023-09-12T10:37:16;99869.41;;;46.44;19.16
6349;BME280;3207;42.648;23.406;2023-09-12T10:39:45;99864.00;;;46.63;19.07
6349;BME280;3207;42.648;23.406;2023-09-12T10:42:13;99852.63;;;46.52;19.24
6349;BME280;3207;42.648;23.406;2023-09-12T10:44:40;99857.22;;;46.76;18.26
6349;BME280;3207;42.648;23.406;2023-09-12T10:47:07;99858.72;;;46.89;17.61
6349;BME280;3207;42.648;23.406;2023-09-12T10:49:35;99858.72;;;46.89;17.32
6349;BME280;3207;42.648;23.406;2023-09-12T10:52:04;99857.38;;;46.99;17.42
6349;BME280;3207;42.648;23.406;2023-09-12T10:54:36;99854.22;;;47.32;16.60
6349;BME280;3207;42.648;23.406;2023-09-12T10:57:06;99851.97;;;46.71;17.51
6349;BME280;3207;42.648;23.406;2023-09-12T10:59:33;99844.41;;;47.19;16.86
6349;BME280;3207;42.648;23.406;2023-09-12T11:02:27;99846.91;;;47.40;16.82
6349;BME280;3207;42.648;23.406;2023-09-12T11:05:37;99847.19;;;47.89;16.97
6349;BME280;3207;42.648;23.406;2023-09-12T11:08:04;99841.19;;;47.87;16.69
6349;BME280;3207;42.648;23.406;2023-09-12T11:10:31;99846.78;;;48.29;15.27
6349;BME280;3207;42.648;23.406;2023-09-12T11:13:00;99850.16;;;49.10;15.47
6349;BME280;3207;42.648;23.406;2023-09-12T11:15:27;99855.00;;;49.13;14.17
6349;BME280;3207;42.648;23.406;2023-09-12T11:18:02;99849.72;;;48.59;14.85
6349;BME280;3207;42.648;23.406;2023-09-12T11:20:50;99850.38;;;48.75;14.69
6349;BME280;3207;42.648;23.406;2023-09-12T11:23:17;99845.16;;;48.70;14.99
6349;BME280;3207;42.648;23.406;2023-09-12T11:25:44;99843.84;;;48.87;14.69
6349;BME280;3207;42.648;23.406;2023-09-12T11:28:13;99837.19;;;48.46;14.86
6349;BME280;3207;42.648;23.406;2023-09-12T11:30:55;99835.00;;;48.35;14.35
6349;BME280;3207;42.648;23.406;2023-09-12T11:33:24;99842.66;;;47.81;15.26
6349;BME280;3207;42.648;23.406;2023-09-12T11:35:52;99827.38;;;47.52;15.47
6349;BME280;3207;42.648;23.406;2023-09-12T11:38:26;99826.03;;;46.48;15.97
6349;BME280;3207;42.648;23.406;2023-09-12T11:40:54;99828.25;;;45.58;15.82
6349;BME280;3207;42.648;23.406;2023-09-12T11:43:23;99820.28;;;44.47;16.62
6349;BME280;3207;42.648;23.406;2023-09-12T11:45:51;99822.31;;;43.22;17.81
6349;BME280;3207;42.648;23.406;2023-09-12T11:48:18;99805.81;;;42.12;18.72
6349;BME280;3207;42.648;23.406;2023-09-12T11:50:50;99804.94;;;41.16;19.92
6349;BME280;3207;42.648;23.406;2023-09-12T11:53:20;99809.75;;;40.18;20.68
6349;BME280;3207;42.648;23.406;2023-09-12T11:55:49;99809.38;;;39.39;21.72
6349;BME280;3207;42.648;23.406;2023-09-12T11:58:18;99797.63;;;38.70;21.88
6349;BME280;3207;42.648;23.406;2023-09-12T12:00:48;99789.00;;;38.17;22.33
6349;BME280;3207;42.648;23.406;2023-09-12T12:03:15;99789.69;;;37.90;23.07
6349;BME280;3207;42.648;23.406;2023-09-12T12:05:43;99792.22;;;37.67;23.07
6349;BME280;3207;42.648;23.406;2023-09-12T12:08:10;99795.28;;;37.42;23.23
6349;BME280;3207;42.648;23.406;2023-09-12T12:10:49;99782.53;;;37.14;23.75
6349;BME280;3207;42.648;23.406;2023-09-12T12:13:17;99786.34;;;37.13;23.82
6349;BME280;3207;42.648;23.406;2023-09-12T12:15:45;99779.47;;;37.20;22.75
6349;BME280;3207;42.648;23.406;2023-09-12T12:18:12;99777.13;;;37.32;23.17
6349;BME280;3207;42.648;23.406;2023-09-12T12:20:39;99779.66;;;37.29;23.08
6349;BME280;3207;42.648;23.406;2023-09-12T12:23:06;99776.34;;;37.08;23.30
6349;BME280;3207;42.648;23.406;2023-09-12T12:25:34;99778.47;;;37.11;24.21
6349;BME280;3207;42.648;23.406;2023-09-12T12:28:01;99775.44;;;37.13;24.43
6349;BME280;3207;42.648;23.406;2023-09-12T12:30:30;99767.56;;;37.35;24.07
6349;BME280;3207;42.648;23.406;2023-09-12T12:33:06;99775.66;;;37.40;24.61
6349;BME280;3207;42.648;23.406;2023-09-12T12:35:33;99759.81;;;37.61;24.65
6349;BME280;3207;42.648;23.406;2023-09-12T12:38:02;99778.06;;;37.65;25.07
6349;BME280;3207;42.648;23.406;2023-09-12T12:40:29;99768.13;;;37.51;25.09
6349;BME280;3207;42.648;23.406;2023-09-12T12:42:56;99766.31;;;37.46;25.14
6349;BME280;3207;42.648;23.406;2023-09-12T12:45:24;99759.06;;;37.36;25.42
6349;BME280;3207;42.648;23.406;2023-09-12T12:47:57;99764.38;;;37.47;25.57
6349;BME280;3207;42.648;23.406;2023-09-12T12:50:25;99763.94;;;37.40;25.61
6349;BME280;3207;42.648;23.406;2023-09-12T12:52:53;99754.44;;;37.37;25.03
6349;BME280;3207;42.648;23.406;2023-09-12T12:55:20;99745.00;;;37.48;24.60
6349;BME280;3207;42.648;23.406;2023-09-12T12:57:48;99749.44;;;37.63;23.85
6349;BME280;3207;42.648;23.406;2023-09-12T13:00:16;99753.41;;;37.70;23.64
6349;BME280;3207;42.648;23.406;2023-09-12T13:02:44;99744.63;;;37.55;24.43
6349;BME280;3207;42.648;23.406;2023-09-12T13:05:20;99748.31;;;37.45;24.85
6349;BME280;3207;42.648;23.406;2023-09-12T13:07:49;99740.66;;;37.66;24.89
6349;BME280;3207;42.648;23.406;2023-09-12T13:10:16;99747.13;;;37.89;24.53
6349;BME280;3207;42.648;23.406;2023-09-12T13:12:42;99742.34;;;37.81;25.07
6349;BME280;3207;42.648;23.406;2023-09-12T13:15:11;99740.44;;;37.62;25.49
6349;BME280;3207;42.648;23.406;2023-09-12T13:17:38;99752.22;;;37.39;25.15
6349;BME280;3207;42.648;23.406;2023-09-12T13:20:06;99744.81;;;37.21;25.30